Terminal Aerodrome Forecast
Issued by NWS

Home | Current Version | Previous Version | Text Only | Print | Product List | Glossary On
Versions: 1 2 3 4 5 6 7 8 9 10 11 12 13 14 15 16 17 18 19 20 21
000
FTUS46 KSGX 221300 AAA
TAFSNA
TAF AMD
KSNA 221353Z 2214/2312 VRB04KT P6SM FEW012
     FM221900 24009KT P6SM FEW020
     FM230200 VRB05KT P6SM FEW015
     FM231000 VRB03KT P6SM BKN012=

USA.gov is the U.S. government's official web portal to all federal, state and local government web resources and services.